Time;durP1;ratioP1;P1;durP2;ratioP2;P2;SDS_P1;SDS_P2;PMS_P1;PMS_P2;Temp;Humidity;BMP_temperature;BMP_pressure;BME280_temperature;BME280_humidity;BME280_pressure;Samples;Min_cycle;Max_cycle;Signal;HPM_P1;HPM_P2
2022/05/27 00:00:15;;;;;;;;;;;;;;;9.92;97.74;97811.47;5000760;28;19925;-74
2022/05/27 00:02:41;;;;;;;;;;;;;;;9.94;97.83;97811.94;4996414;28;19926;-75
2022/05/27 00:05:07;;;;;;;;;;;;;;;9.93;97.89;97805.69;4986229;28;19936;-74
2022/05/27 00:07:35;;;;;;;;;;;;;;;9.96;98.00;97806.97;4986562;28;20025;-75
2022/05/27 00:10:00;;;;;;;;;;;;;;;9.98;98.10;97802.00;4985163;28;19933;-74
2022/05/27 00:12:26;;;;;;;;;;;;;;;9.95;98.00;97810.81;4983567;28;19930;-74
2022/05/27 00:14:52;;;;;;;;;;;;;;;9.90;97.88;97803.59;4983816;28;20016;-75
2022/05/27 00:17:18;;;;;;;;;;;;;;;9.91;97.94;97812.59;4982787;28;19926;-75
2022/05/27 00:19:44;;;;;;;;;;;;;;;9.92;97.82;97806.81;4983793;28;19948;-75
2022/05/27 00:22:09;;;;;;;;;;;;;;;9.92;97.67;97809.56;4983132;28;19925;-75
2022/05/27 00:24:37;;;;;;;;;;;;;;;9.97;97.95;97810.53;4985988;28;19988;-75
2022/05/27 00:27:03;;;;;;;;;;;;;;;10.01;97.83;97814.22;4984427;28;19932;-75
2022/05/27 00:29:28;;;;;;;;;;;;;;;10.03;97.74;97818.25;4984963;28;20397;-75
2022/05/27 00:31:54;;;;;;;;;;;;;;;10.03;97.69;97815.50;4985336;28;19972;-74
2022/05/27 00:34:20;;;;;;;;;;;;;;;10.05;97.70;97813.25;4966469;28;19965;-75
2022/05/27 00:36:46;;;;;;;;;;;;;;;10.05;97.77;97813.25;4983739;28;20108;-75
2022/05/27 00:39:12;;;;;;;;;;;;;;;9.96;97.64;97815.16;4983210;28;20381;-77
2022/05/27 00:41:40;;;;;;;;;;;;;;;9.85;97.34;97814.66;4985549;28;20397;-76
2022/05/27 00:44:06;;;;;;;;;;;;;;;9.77;97.04;97810.81;4981761;28;19926;-75
2022/05/27 00:46:33;;;;;;;;;;;;;;;9.74;96.81;97816.09;4983636;28;19932;-75
2022/05/27 00:49:02;;;;;;;;;;;;;;;9.69;96.75;97808.88;4986214;28;20348;-75
2022/05/27 00:51:29;;;;;;;;;;;;;;;9.68;96.70;97810.00;5002639;28;19965;-76
2022/05/27 00:53:57;;;;;;;;;;;;;;;9.64;96.40;97814.47;5002013;28;20353;-75
2022/05/27 00:56:25;;;;;;;;;;;;;;;9.59;95.85;97812.66;5018156;28;19925;-76
2022/05/27 00:58:56;;;;;;;;;;;;;;;9.58;95.77;97807.56;5003096;28;20351;-75
2022/05/27 01:01:23;;;;;;;;;;;;;;;9.56;95.66;97810.59;5002794;28;19932;-75
2022/05/27 01:03:49;;;;;;;;;;;;;;;9.56;95.41;97810.59;5017350;28;20428;-75
2022/05/27 01:06:15;;;;;;;;;;;;;;;9.58;95.24;97813.00;5001794;28;20016;-74
2022/05/27 01:08:41;;;;;;;;;;;;;;;9.59;95.13;97814.63;5001404;28;19925;-75
2022/05/27 01:11:12;;;;;;;;;;;;;;;9.60;94.93;97817.03;5003951;28;21134;-75
2022/05/27 01:13:41;;;;;;;;;;;;;;;9.62;94.64;97817.53;4995293;28;20308;-75
2022/05/27 01:16:12;;;;;;;;;;;;;;;9.65;94.36;97824.25;4983151;28;19936;-75
2022/05/27 01:21:37;;;;;;;;;;;;;;;9.61;92.95;97817.81;4999620;28;19926;-74
2022/05/27 01:24:20;;;;;;;;;;;;;;;9.61;92.85;97820.56;4991188;28;20369;-75
2022/05/27 01:27:19;;;;;;;;;;;;;;;9.60;92.38;97819.78;5005818;28;20424;-75
2022/05/27 01:30:04;;;;;;;;;;;;;;;9.62;91.81;97820.25;4944134;28;19927;-74
2022/05/27 01:32:35;;;;;;;;;;;;;;;9.62;91.41;97811.25;4946383;29;19926;-74
2022/05/27 01:35:07;;;;;;;;;;;;;;;9.62;91.13;97819.44;4947056;29;19977;-74
2022/05/27 01:37:38;;;;;;;;;;;;;;;9.60;90.73;97816.22;4944879;29;19934;-74
2022/05/27 01:40:07;;;;;;;;;;;;;;;9.60;90.83;97822.50;4945831;28;20287;-74
2022/05/27 01:42:37;;;;;;;;;;;;;;;9.64;90.91;97818.00;4930502;29;19930;-74
2022/05/27 01:45:07;;;;;;;;;;;;;;;9.60;90.54;97817.03;4945439;28;19961;-74
2022/05/27 01:47:36;;;;;;;;;;;;;;;9.53;90.03;97813.94;4945686;29;19931;-75
2022/05/27 01:50:05;;;;;;;;;;;;;;;9.51;90.34;97808.81;4946774;28;20022;-74
2022/05/27 01:52:35;;;;;;;;;;;;;;;9.51;90.08;97813.47;4947190;29;20305;-74
2022/05/27 01:55:05;;;;;;;;;;;;;;;9.53;90.33;97819.41;4930366;29;19926;-75
2022/05/27 01:57:35;;;;;;;;;;;;;;;9.57;90.46;97812.19;4929141;29;20738;-77
2022/05/27 02:00:05;;;;;;;;;;;;;;;9.61;90.32;97817.81;4941431;28;19933;-79
2022/05/27 02:02:34;;;;;;;;;;;;;;;9.66;90.31;97814.94;4985809;28;19925;-79
2022/05/27 02:05:04;;;;;;;;;;;;;;;9.71;90.25;97819.44;4986861;28;20385;-80
2022/05/27 02:07:33;;;;;;;;;;;;;;;9.72;90.08;97818.31;4988605;28;20020;-79
2022/05/27 02:10:01;;;;;;;;;;;;;;;9.75;90.01;97812.22;4986269;28;19926;-80
2022/05/27 02:12:30;;;;;;;;;;;;;;;9.74;89.01;97813.34;4989842;28;19933;-78
2022/05/27 02:14:59;;;;;;;;;;;;;;;9.74;88.72;97813.34;4985218;28;19926;-78
2022/05/27 02:17:28;;;;;;;;;;;;;;;9.76;88.17;97813.88;4988381;28;20261;-78
2022/05/27 02:19:56;;;;;;;;;;;;;;;9.77;86.96;97813.53;4970080;28;20469;-78
2022/05/27 02:22:25;;;;;;;;;;;;;;;9.78;86.57;97817.88;4991023;28;20400;-78
2022/05/27 02:24:56;;;;;;;;;;;;;;;9.77;86.10;97815.47;4982842;28;19953;-78
2022/05/27 02:27:23;;;;;;;;;;;;;;;9.79;86.15;97814.00;4977700;28;20016;-78
2022/05/27 02:29:51;;;;;;;;;;;;;;;9.85;86.46;97819.34;4984602;28;19976;-78
2022/05/27 02:32:20;;;;;;;;;;;;;;;9.87;85.85;97809.69;4990396;28;20570;-78
2022/05/27 02:37:34;;;;;;;;;;;;;;;9.92;85.92;97811.47;4989541;28;20020;-78
2022/05/27 02:40:01;;;;;;;;;;;;;;;9.98;86.08;97812.13;5002453;28;19926;-78
2022/05/27 02:42:31;;;;;;;;;;;;;;;10.06;86.10;97819.50;4999292;28;19969;-78
2022/05/27 02:45:02;;;;;;;;;;;;;;;10.11;85.91;97813.91;5002953;28;19926;-78
2022/05/27 02:47:31;;;;;;;;;;;;;;;10.13;85.74;97821.75;4988482;28;20020;-77
2022/05/27 02:50:00;;;;;;;;;;;;;;;10.13;85.57;97825.31;4989092;28;19929;-78
2022/05/27 02:52:31;;;;;;;;;;;;;;;10.13;85.76;97821.75;4986779;28;20316;-78
2022/05/27 02:55:03;;;;;;;;;;;;;;;10.07;85.85;97824.66;4991324;28;20423;-78
2022/05/27 02:57:32;;;;;;;;;;;;;;;9.99;86.11;97821.91;4989663;28;19948;-78
2022/05/27 03:00:02;;;;;;;;;;;;;;;9.97;86.56;97822.22;4986939;28;19926;-77
2022/05/27 03:02:28;;;;;;;;;;;;;;;10.00;86.87;97815.34;4987982;28;19973;-77
2022/05/27 03:04:58;;;;;;;;;;;;;;;9.98;86.38;97821.09;4988361;28;19933;-77
2022/05/27 03:07:31;;;;;;;;;;;;;;;9.96;86.43;97826.09;4987158;28;19988;-78
2022/05/27 03:10:07;;;;;;;;;;;;;;;9.97;86.35;97824.97;4986997;28;19929;-78
2022/05/27 03:12:44;;;;;;;;;;;;;;;10.01;86.30;97822.41;4985934;28;20488;-78
2022/05/27 03:15:24;;;;;;;;;;;;;;;10.00;86.10;97820.78;5003206;28;19926;-79
2022/05/27 03:18:05;;;;;;;;;;;;;;;10.03;86.11;97826.44;4983916;28;20151;-78
2022/05/27 03:20:40;;;;;;;;;;;;;;;10.04;85.71;97833.50;4985559;28;20324;-78
2022/05/27 03:23:13;;;;;;;;;;;;;;;10.06;85.68;97823.06;4986207;28;19932;-79
2022/05/27 03:25:41;;;;;;;;;;;;;;;10.13;85.91;97828.03;4986297;28;20408;-78
2022/05/27 03:28:11;;;;;;;;;;;;;;;10.16;85.84;97834.81;4984355;28;19956;-78
2022/05/27 03:30:40;;;;;;;;;;;;;;;10.15;85.56;97825.00;4988890;28;20020;-74
2022/05/27 03:33:09;;;;;;;;;;;;;;;10.14;85.37;97837.03;4986499;28;20016;-74
2022/05/27 03:35:37;;;;;;;;;;;;;;;10.14;85.49;97826.91;4984199;28;19925;-74
2022/05/27 03:38:06;;;;;;;;;;;;;;;10.20;85.41;97827.56;4985930;28;20290;-73
2022/05/27 03:40:35;;;;;;;;;;;;;;;10.24;85.29;97828.53;4982168;28;19925;-75
2022/05/27 03:43:03;;;;;;;;;;;;;;;10.28;85.36;97831.44;4985048;28;19976;-74
2022/05/27 03:45:28;;;;;;;;;;;;;;;10.32;85.20;97829.66;4986494;28;19980;-74
2022/05/27 03:47:54;;;;;;;;;;;;;;;10.36;85.43;97834.16;4986353;28;19929;-74
2022/05/27 03:50:22;;;;;;;;;;;;;;;10.42;85.49;97828.56;4984668;28;20302;-74
2022/05/27 03:52:49;;;;;;;;;;;;;;;10.45;85.08;97836.09;4984696;28;20024;-74
2022/05/27 03:55:16;;;;;;;;;;;;;;;10.48;84.87;97835.47;4981441;28;19932;-74
2022/05/27 03:57:41;;;;;;;;;;;;;;;10.49;84.52;97828.88;4986039;28;20385;-73
2022/05/27 04:00:10;;;;;;;;;;;;;;;10.52;84.45;97830.16;4983611;28;19926;-74
2022/05/27 04:02:39;;;;;;;;;;;;;;;10.55;84.41;97835.00;4984066;28;20370;-74
2022/05/27 04:05:06;;;;;;;;;;;;;;;10.53;84.21;97838.03;4986056;28;20305;-74
2022/05/27 04:07:32;;;;;;;;;;;;;;;10.43;83.59;97838.34;4987966;28;20393;-74
2022/05/27 04:09:58;;;;;;;;;;;;;;;10.36;83.90;97838.81;4985153;28;19932;-74
2022/05/27 04:12:24;;;;;;;;;;;;;;;10.35;84.13;97831.72;4985839;28;20411;-74
2022/05/27 04:14:50;;;;;;;;;;;;;;;10.36;84.04;97842.34;4984838;28;19933;-74
2022/05/27 04:17:32;;;;;;;;;;;;;;;10.35;83.83;97832.56;4984330;28;19925;-74
2022/05/27 04:19:58;;;;;;;;;;;;;;;10.36;83.79;97831.44;4987885;28;20064;-77
2022/05/27 04:22:25;;;;;;;;;;;;;;;10.38;83.78;97830.31;4967479;28;19937;-77
2022/05/27 04:24:50;;;;;;;;;;;;;;;10.39;83.91;97835.44;4998495;28;19997;-77
2022/05/27 04:27:17;;;;;;;;;;;;;;;10.44;83.78;97832.56;4986869;28;20028;-77
2022/05/27 04:29:44;;;;;;;;;;;;;;;10.48;83.83;97835.47;4969662;28;20443;-77
2022/05/27 04:32:10;;;;;;;;;;;;;;;10.56;83.78;97836.59;4989840;28;20452;-74
2022/05/27 04:34:38;;;;;;;;;;;;;;;10.60;83.40;97838.34;4982522;28;19949;-73
2022/05/27 04:37:04;;;;;;;;;;;;;;;10.53;83.25;97832.56;4985426;28;19932;-77
2022/05/27 04:39:30;;;;;;;;;;;;;;;10.45;83.10;97842.38;4986098;28;19957;-77
2022/05/27 04:41:56;;;;;;;;;;;;;;;10.37;83.25;97843.13;4984065;28;19965;-78
2022/05/27 04:44:23;;;;;;;;;;;;;;;10.38;83.67;97838.50;4987207;28;19925;-78
2022/05/27 04:46:53;;;;;;;;;;;;;;;10.42;83.91;97842.22;4988225;28;19930;-78
2022/05/27 04:52:07;;;;;;;;;;;;;;;10.10;84.20;97839.59;4978017;28;19936;-74
2022/05/27 04:54:32;;;;;;;;;;;;;;;10.12;85.04;97839.28;4985717;28;19925;-74
2022/05/27 04:56:59;;;;;;;;;;;;;;;10.16;85.08;97838.31;4985533;28;20033;-77
2022/05/27 04:59:25;;;;;;;;;;;;;;;10.24;84.78;97838.66;4985672;28;20145;-78
2022/05/27 05:01:51;;;;;;;;;;;;;;;10.35;84.53;97840.75;4998959;28;20023;-77
2022/05/27 05:04:16;;;;;;;;;;;;;;;10.43;83.44;97841.09;5022631;28;20028;-78
2022/05/27 05:06:43;;;;;;;;;;;;;;;10.44;82.58;97838.03;4996227;28;20028;-77
2022/05/27 05:09:10;;;;;;;;;;;;;;;10.46;82.48;97832.28;4987907;28;19925;-78
2022/05/27 05:11:36;;;;;;;;;;;;;;;10.43;82.60;97841.09;4991599;28;19972;-74
2022/05/27 05:14:02;;;;;;;;;;;;;;;10.38;82.56;97844.78;4654129;28;9999823;-74
2022/05/27 05:16:28;;;;;;;;;;;;;;;10.31;82.36;97845.25;4983306;28;19925;-74
2022/05/27 05:18:54;;;;;;;;;;;;;;;10.34;82.59;97846.53;4980256;28;19933;-74
2022/05/27 05:21:20;;;;;;;;;;;;;;;10.40;82.59;97849.91;4977072;28;20028;-75
2022/05/27 05:23:45;;;;;;;;;;;;;;;10.46;82.35;97849.44;4990673;28;20568;-73
2022/05/27 05:26:12;;;;;;;;;;;;;;;10.58;82.13;97856.22;4993287;28;19952;-74
2022/05/27 05:28:39;;;;;;;;;;;;;;;10.56;81.37;97850.25;4986568;28;20363;-77
2022/05/27 05:31:06;;;;;;;;;;;;;;;10.56;81.59;97848.31;4963712;28;19929;-77
2022/05/27 05:33:32;;;;;;;;;;;;;;;10.57;81.09;97846.41;4984123;28;19932;-76
2022/05/27 05:35:58;;;;;;;;;;;;;;;10.60;81.40;97862.16;4964858;28;19926;-76
2022/05/27 05:38:26;;;;;;;;;;;;;;;10.60;80.62;97852.00;4976799;28;20109;-76
2022/05/27 05:40:52;;;;;;;;;;;;;;;10.67;80.45;97856.19;4996929;28;19925;-76
2022/05/27 05:43:19;;;;;;;;;;;;;;;10.61;80.67;97853.63;4995923;28;19952;-77
2022/05/27 05:45:45;;;;;;;;;;;;;;;10.53;80.94;97862.63;5003402;28;20028;-76
2022/05/27 05:48:11;;;;;;;;;;;;;;;10.44;80.92;97861.81;4984165;28;20361;-76
2022/05/27 05:50:36;;;;;;;;;;;;;;;10.44;81.41;97857.16;4970066;28;19926;-75
2022/05/27 05:53:02;;;;;;;;;;;;;;;10.48;81.12;97869.06;4970160;28;19925;-76
2022/05/27 05:55:31;;;;;;;;;;;;;;;10.45;80.74;97858.78;4995281;28;20047;-76
2022/05/27 05:57:56;;;;;;;;;;;;;;;10.41;81.10;97863.28;5009014;28;19925;-73
2022/05/27 06:00:25;;;;;;;;;;;;;;;10.44;80.67;97865.38;5007291;28;20304;-73
2022/05/27 06:02:51;;;;;;;;;;;;;;;10.56;80.52;97864.72;5022338;28;19925;-73
2022/05/27 06:05:17;;;;;;;;;;;;;;;10.74;80.18;97862.78;5008327;28;19931;-73
2022/05/27 06:07:43;;;;;;;;;;;;;;;11.01;79.35;97865.47;5003775;28;20232;-73
2022/05/27 06:10:11;;;;;;;;;;;;;;;11.28;78.14;97868.94;4987245;28;20634;-72
2022/05/27 06:12:37;;;;;;;;;;;;;;;11.57;77.19;97868.19;4983556;28;19932;-72
2022/05/27 06:15:05;;;;;;;;;;;;;;;11.84;75.88;97874.34;4981844;28;19925;-73
2022/05/27 06:17:33;;;;;;;;;;;;;;;12.03;74.06;97879.44;4976776;28;19956;-73
2022/05/27 06:19:59;;;;;;;;;;;;;;;12.16;74.28;97879.50;4993059;28;19976;-75
2022/05/27 06:22:25;;;;;;;;;;;;;;;12.38;72.93;97872.91;4969752;28;19926;-73
2022/05/27 06:24:51;;;;;;;;;;;;;;;12.51;72.68;97872.97;5001480;28;19933;-75
2022/05/27 06:27:17;;;;;;;;;;;;;;;12.50;72.21;97869.44;4994028;28;19990;-72
2022/05/27 06:35:15;;;;;;;;;;;;;;;12.72;68.80;97856.50;4982564;28;19983;-76
2022/05/27 06:37:41;;;;;;;;;;;;;;;12.85;68.85;97877.38;4987283;28;19960;-72
2022/05/27 06:40:08;;;;;;;;;;;;;;;12.95;67.59;97876.16;4981001;28;19968;-75
2022/05/27 06:42:34;;;;;;;;;;;;;;;12.83;67.67;97881.56;4983211;28;20127;-72
2022/05/27 06:45:00;;;;;;;;;;;;;;;12.76;68.44;97880.19;5001191;28;19960;-73
2022/05/27 06:47:26;;;;;;;;;;;;;;;12.82;67.91;97888.19;4983328;28;19937;-72
2022/05/27 06:49:52;;;;;;;;;;;;;;;12.92;67.11;97885.06;4982558;28;19925;-72
2022/05/27 06:52:20;;;;;;;;;;;;;;;12.88;66.63;97884.13;4985862;28;19964;-73
2022/05/27 06:54:46;;;;;;;;;;;;;;;12.58;66.60;97890.50;4998700;28;20435;-72
2022/05/27 06:57:12;;;;;;;;;;;;;;;12.19;67.87;97881.59;4985189;28;20036;-73
2022/05/27 06:59:38;;;;;;;;;;;;;;;12.03;68.70;97901.34;4987971;28;20346;-72
2022/05/27 07:02:04;;;;;;;;;;;;;;;11.89;69.34;97904.28;4983441;28;19932;-72
2022/05/27 07:04:30;;;;;;;;;;;;;;;11.73;70.10;97906.78;5005417;28;20415;-73
2022/05/27 07:06:57;;;;;;;;;;;;;;;11.58;70.77;97910.06;4987720;28;19925;-72
2022/05/27 07:09:30;;;;;;;;;;;;;;;11.50;71.74;97898.00;4984469;28;19932;-72
2022/05/27 07:11:56;;;;;;;;;;;;;;;11.49;72.12;97902.66;4983855;28;19930;-73
2022/05/27 07:14:22;;;;;;;;;;;;;;;11.49;71.73;97908.13;4987361;28;20007;-72
2022/05/27 07:16:48;;;;;;;;;;;;;;;11.53;71.77;97907.47;4987016;28;20036;-75
2022/05/27 07:19:14;;;;;;;;;;;;;;;11.66;71.34;97906.47;4986582;28;19945;-76
2022/05/27 07:21:41;;;;;;;;;;;;;;;11.81;70.03;97909.78;4987371;28;19925;-76
2022/05/27 07:24:09;;;;;;;;;;;;;;;11.89;69.65;97925.41;4985354;28;19925;-76
2022/05/27 07:26:37;;;;;;;;;;;;;;;12.06;69.33;97913.56;4986788;28;19929;-76
2022/05/27 07:29:03;;;;;;;;;;;;;;;12.28;68.45;97926.16;4981799;28;20028;-75
2022/05/27 07:31:29;;;;;;;;;;;;;;;12.42;67.40;97917.72;4981518;28;19925;-76
2022/05/27 07:33:55;;;;;;;;;;;;;;;12.45;66.08;97924.44;4973576;28;20039;-76
2022/05/27 07:36:21;;;;;;;;;;;;;;;12.43;66.65;97927.53;4974322;28;20016;-76
2022/05/27 07:38:51;;;;;;;;;;;;;;;12.54;65.01;97925.19;4979355;28;19931;-76
2022/05/27 07:41:16;;;;;;;;;;;;;;;12.58;65.51;97919.84;4980192;28;19925;-76
2022/05/27 07:43:44;;;;;;;;;;;;;;;12.66;64.66;97918.19;4980171;28;20436;-76
2022/05/27 07:46:10;;;;;;;;;;;;;;;12.81;65.42;97920.31;4984798;28;19925;-76
2022/05/27 07:48:36;;;;;;;;;;;;;;;12.94;64.86;97920.34;4969968;28;20305;-75
2022/05/27 07:51:02;;;;;;;;;;;;;;;13.03;65.13;97919.16;4979760;28;20024;-76
2022/05/27 07:53:27;;;;;;;;;;;;;;;13.33;64.46;97927.22;4984235;28;19929;-76
2022/05/27 07:55:53;;;;;;;;;;;;;;;13.46;63.08;97930.03;4986473;28;19932;-76
2022/05/27 07:58:19;;;;;;;;;;;;;;;13.64;62.91;97916.94;4981509;28;19926;-75
2022/05/27 08:00:46;;;;;;;;;;;;;;;13.89;62.58;97928.75;4982614;28;19925;-75
2022/05/27 08:03:13;;;;;;;;;;;;;;;14.03;61.71;97917.41;4982293;28;20172;-76
2022/05/27 08:05:39;;;;;;;;;;;;;;;13.95;60.83;97934.00;4985317;28;19953;-76
2022/05/27 08:08:06;;;;;;;;;;;;;;;14.00;60.48;97918.09;4982663;28;20024;-76
2022/05/27 08:10:33;;;;;;;;;;;;;;;14.21;59.32;97924.63;4998834;28;19926;-75
2022/05/27 08:13:00;;;;;;;;;;;;;;;14.39;59.68;97906.72;4986693;28;19926;-76
2022/05/27 08:15:26;;;;;;;;;;;;;;;14.45;59.93;97919.09;4980843;28;20029;-75
2022/05/27 08:17:54;;;;;;;;;;;;;;;14.28;60.43;97920.13;4980203;28;19926;-76
2022/05/27 08:20:21;;;;;;;;;;;;;;;13.97;60.12;97920.72;5007483;28;20419;-75
2022/05/27 08:22:48;;;;;;;;;;;;;;;13.58;60.70;97923.78;4987062;28;20370;-75
2022/05/27 08:25:14;;;;;;;;;;;;;;;13.22;61.86;97928.00;4981981;28;20324;-75
2022/05/27 08:27:40;;;;;;;;;;;;;;;13.00;63.30;97925.28;5002989;28;19985;-76
2022/05/27 08:30:07;;;;;;;;;;;;;;;12.89;64.27;97932.34;4985141;28;19957;-76
2022/05/27 08:32:33;;;;;;;;;;;;;;;12.87;65.21;97943.66;5007295;28;20008;-75
2022/05/27 08:38:07;;;;;;;;;;;;;;;12.73;68.61;97946.69;4990281;28;20314;-75
2022/05/27 08:40:38;;;;;;;;;;;;;;;12.68;69.61;97946.06;4984778;28;20421;-76
2022/05/27 08:43:09;;;;;;;;;;;;;;;12.73;69.55;97932.16;5001134;28;19926;-75
2022/05/27 08:45:37;;;;;;;;;;;;;;;12.91;68.22;97939.09;4982657;28;19956;-76
2022/05/27 08:48:05;;;;;;;;;;;;;;;13.12;65.99;97937.47;4982860;28;19932;-76
2022/05/27 08:50:36;;;;;;;;;;;;;;;13.37;64.38;97937.56;4986008;28;19933;-75
2022/05/27 08:53:05;;;;;;;;;;;;;;;13.55;63.39;97957.41;4984483;28;20420;-75
2022/05/27 09:01:13;;;;;;;;;;;;;;;13.46;63.73;97947.34;4977855;28;19925;-73
2022/05/27 09:03:44;;;;;;;;;;;;;;;13.43;63.97;97949.91;4984668;28;20385;-72
2022/05/27 09:06:13;;;;;;;;;;;;;;;13.51;63.86;97943.56;4984064;28;20032;-72
2022/05/27 09:08:39;;;;;;;;;;;;;;;13.77;63.90;97953.44;4982438;28;19925;-72
2022/05/27 09:11:11;;;;;;;;;;;;;;;13.85;63.41;97958.03;5007728;28;20360;-73
2022/05/27 09:13:41;;;;;;;;;;;;;;;13.79;63.59;97958.59;5000974;28;20434;-72
2022/05/27 09:16:12;;;;;;;;;;;;;;;13.55;64.12;97960.16;4979238;28;20408;-71
2022/05/27 09:18:45;;;;;;;;;;;;;;;13.30;64.91;97960.06;4984534;28;19977;-72
2022/05/27 09:21:24;;;;;;;;;;;;;;;13.19;65.48;97965.19;4990176;28;19925;-75
2022/05/27 09:23:58;;;;;;;;;;;;;;;13.17;65.45;97954.53;4979825;28;19932;-75
2022/05/27 09:26:26;;;;;;;;;;;;;;;13.32;65.12;97963.28;4982435;28;20037;-75
2022/05/27 09:28:58;;;;;;;;;;;;;;;13.25;65.44;97976.72;4983697;28;19925;-75
2022/05/27 09:31:30;;;;;;;;;;;;;;;12.55;68.92;97980.81;4991508;28;20284;-76
2022/05/27 09:33:56;;;;;;;;;;;;;;;11.92;72.57;97988.50;4984909;28;19933;-75
2022/05/27 09:36:28;;;;;;;;;;;;;;;11.72;73.81;97991.97;4986228;28;19926;-75
2022/05/27 09:38:57;;;;;;;;;;;;;;;11.68;74.15;97985.53;5001263;28;19930;-75
2022/05/27 09:41:26;;;;;;;;;;;;;;;11.84;73.92;97994.00;4985307;28;19965;-75
2022/05/27 09:43:54;;;;;;;;;;;;;;;12.05;72.98;97984.00;4986438;28;19929;-75
2022/05/27 09:46:24;;;;;;;;;;;;;;;12.44;72.25;97988.63;4968753;28;19925;-75
2022/05/27 09:48:50;;;;;;;;;;;;;;;12.91;69.47;97984.94;5002652;28;19929;-75
2022/05/27 09:51:17;;;;;;;;;;;;;;;13.36;67.43;97993.59;4972634;28;20312;-75
2022/05/27 09:53:48;;;;;;;;;;;;;;;14.34;65.60;97992.19;4986129;28;19932;-76
2022/05/27 09:56:14;;;;;;;;;;;;;;;14.91;63.33;97992.38;5005989;28;19953;-72
2022/05/27 09:58:42;;;;;;;;;;;;;;;14.97;62.65;97988.22;4987388;28;19926;-72
2022/05/27 10:01:19;;;;;;;;;;;;;;;15.09;62.96;97981.88;4988386;28;20020;-72
2022/05/27 10:03:45;;;;;;;;;;;;;;;15.30;62.44;97981.69;4982090;28;20407;-72
2022/05/27 10:06:15;;;;;;;;;;;;;;;16.37;60.10;97977.69;5006402;28;19948;-72
2022/05/27 10:08:45;;;;;;;;;;;;;;;16.76;59.07;97983.31;4986851;28;20427;-72
2022/05/27 10:11:21;;;;;;;;;;;;;;;16.07;58.58;97995.50;4987478;28;20382;-72
2022/05/27 10:13:47;;;;;;;;;;;;;;;15.17;60.93;97999.38;4988654;28;19925;-72
2022/05/27 10:16:20;;;;;;;;;;;;;;;14.30;65.32;97997.56;4987517;28;19925;-72
2022/05/27 10:18:46;;;;;;;;;;;;;;;13.36;71.32;97999.09;4983760;28;19926;-76
2022/05/27 10:21:14;;;;;;;;;;;;;;;12.59;75.48;98009.97;4986931;28;20515;-76
2022/05/27 10:23:41;;;;;;;;;;;;;;;12.10;78.48;97996.72;4986711;28;19926;-76
2022/05/27 10:26:21;;;;;;;;;;;;;;;11.81;78.31;98008.38;4990244;28;19925;-76
2022/05/27 10:28:56;;;;;;;;;;;;;;;12.05;78.03;98003.16;5003027;28;19926;-76
2022/05/27 10:31:23;;;;;;;;;;;;;;;12.56;72.87;98004.34;4989298;28;19930;-76
2022/05/27 10:33:49;;;;;;;;;;;;;;;12.55;70.08;98010.97;4987844;28;20357;-76
2022/05/27 10:36:31;;;;;;;;;;;;;;;12.49;69.65;98024.09;4983600;28;20282;-76
2022/05/27 10:39:00;;;;;;;;;;;;;;;12.55;70.41;98000.81;4987756;28;19926;-76
2022/05/27 10:41:34;;;;;;;;;;;;;;;12.63;70.00;98021.88;4986276;28;19926;-75
2022/05/27 10:44:10;;;;;;;;;;;;;;;12.67;68.67;98015.75;4987643;28;20380;-76
2022/05/27 10:46:39;;;;;;;;;;;;;;;12.93;67.40;98029.28;4982397;28;19926;-76
2022/05/27 10:49:21;;;;;;;;;;;;;;;12.96;65.13;98031.34;4987557;28;19936;-76
2022/05/27 10:51:53;;;;;;;;;;;;;;;12.63;68.27;98021.09;4987777;28;19926;-75
2022/05/27 10:54:26;;;;;;;;;;;;;;;12.18;71.05;98031.47;4968768;28;20301;-76
2022/05/27 11:02:45;;;;;;;;;;;;;;;11.61;70.46;98019.69;4982843;28;19925;-76
2022/05/27 11:05:25;;;;;;;;;;;;;;;11.54;69.33;98013.91;4990926;28;19926;-76
2022/05/27 11:08:00;;;;;;;;;;;;;;;11.51;71.02;98022.78;4976857;28;19969;-76
2022/05/27 11:10:39;;;;;;;;;;;;;;;11.55;70.52;98022.91;4984412;28;19925;-72
2022/05/27 11:16:06;;;;;;;;;;;;;;;11.55;69.18;98039.31;4983549;28;19926;-72
2022/05/27 11:18:38;;;;;;;;;;;;;;;11.68;70.10;98041.09;4985466;28;19995;-72
2022/05/27 11:21:18;;;;;;;;;;;;;;;11.90;70.30;98047.50;4986008;28;20282;-72
2022/05/27 11:23:53;;;;;;;;;;;;;;;12.13;70.39;98055.50;4987194;28;20348;-71
2022/05/27 11:26:25;;;;;;;;;;;;;;;12.38;69.71;98048.28;4984153;28;20007;-72
2022/05/27 11:29:06;;;;;;;;;;;;;;;12.61;68.67;98048.81;5003913;28;20067;-76
2022/05/27 11:31:42;;;;;;;;;;;;;;;12.98;68.22;98048.28;4986072;28;20351;-76
2022/05/27 11:34:12;;;;;;;;;;;;;;;13.48;66.74;98045.81;4983172;28;20004;-76
2022/05/27 11:36:50;;;;;;;;;;;;;;;14.02;66.00;98044.16;4986950;28;19972;-72
2022/05/27 11:39:35;;;;;;;;;;;;;;;14.61;63.66;98050.38;4990279;28;19931;-76
2022/05/27 11:42:05;;;;;;;;;;;;;;;15.15;61.55;98043.78;4978408;28;20409;-72
2022/05/27 11:44:39;;;;;;;;;;;;;;;15.36;60.82;98036.47;4984439;28;20401;-73
2022/05/27 11:47:30;;;;;;;;;;;;;;;15.15;60.42;98034.72;4986220;28;19929;-72
2022/05/27 11:50:05;;;;;;;;;;;;;;;15.25;60.43;98049.94;4997337;28;19937;-72
2022/05/27 11:52:51;;;;;;;;;;;;;;;15.31;59.36;98046.59;4984773;28;20417;-72
2022/05/27 11:55:25;;;;;;;;;;;;;;;14.86;60.80;98051.19;4993897;28;20013;-72
2022/05/27 11:58:00;;;;;;;;;;;;;;;14.25;62.80;98055.53;4987516;28;20072;-72
2022/05/27 12:00:29;;;;;;;;;;;;;;;13.82;64.36;98054.06;4982292;28;19930;-72
2022/05/27 12:02:57;;;;;;;;;;;;;;;13.42;65.33;98045.19;4989628;28;19929;-72
2022/05/27 12:05:26;;;;;;;;;;;;;;;13.14;66.67;98048.50;4990147;28;19926;-72
2022/05/27 12:07:55;;;;;;;;;;;;;;;12.82;67.57;98047.25;4986914;28;20123;-72
2022/05/27 12:10:23;;;;;;;;;;;;;;;12.67;68.72;98046.69;4986302;28;19933;-72
2022/05/27 12:12:54;;;;;;;;;;;;;;;12.74;69.39;98054.41;4980718;28;19944;-72
2022/05/27 12:15:24;;;;;;;;;;;;;;;12.74;69.12;98044.25;4980120;28;19926;-72
2022/05/27 12:17:52;;;;;;;;;;;;;;;12.84;69.58;98050.47;4985690;28;20001;-72
2022/05/27 12:20:20;;;;;;;;;;;;;;;12.93;68.49;98053.97;4985306;28;19925;-76
2022/05/27 12:22:48;;;;;;;;;;;;;;;12.96;67.48;98055.25;5001929;28;19933;-76
2022/05/27 12:25:18;;;;;;;;;;;;;;;13.03;67.41;98055.50;5004432;28;19972;-76
2022/05/27 12:27:44;;;;;;;;;;;;;;;13.09;68.22;98056.91;4988024;28;19932;-76
2022/05/27 12:30:12;;;;;;;;;;;;;;;13.55;65.58;98061.75;4978532;28;19926;-72
2022/05/27 12:32:39;;;;;;;;;;;;;;;14.26;62.67;98051.63;5000156;28;20028;-72
2022/05/27 12:35:20;;;;;;;;;;;;;;;14.81;59.67;98042.38;4985130;28;20397;-72
2022/05/27 12:37:47;;;;;;;;;;;;;;;16.51;53.89;98051.72;4985169;28;20468;-72
2022/05/27 12:40:20;;;;;;;;;;;;;;;18.90;47.28;98041.69;4983127;28;19997;-72
2022/05/27 12:42:51;;;;;;;;;;;;;;;20.65;41.13;98047.97;5001036;28;19949;-72
2022/05/27 12:45:21;;;;;;;;;;;;;;;21.80;39.55;98042.22;4989441;28;20388;-72
2022/05/27 12:47:49;;;;;;;;;;;;;;;22.31;38.25;98053.44;4990282;28;19926;-73
2022/05/27 12:50:20;;;;;;;;;;;;;;;22.64;37.74;98054.25;4997528;28;20016;-72
2022/05/27 12:52:55;;;;;;;;;;;;;;;22.65;36.42;98046.72;4989776;28;20005;-72
2022/05/27 13:01:24;;;;;;;;;;;;;;;22.70;36.60;98037.13;4986936;28;19926;-72
2022/05/27 13:03:54;;;;;;;;;;;;;;;22.17;38.11;98054.22;4984546;28;20347;-72
2022/05/27 13:06:35;;;;;;;;;;;;;;;22.50;36.67;98049.50;4983956;28;20041;-72
2022/05/27 13:09:03;;;;;;;;;;;;;;;21.83;38.97;98051.75;4977360;28;20416;-76
2022/05/27 13:11:41;;;;;;;;;;;;;;;22.44;38.57;98042.69;4987752;28;19934;-76
2022/05/27 13:14:13;;;;;;;;;;;;;;;22.44;37.23;98045.47;5000367;28;19926;-77
2022/05/27 13:16:42;;;;;;;;;;;;;;;23.64;36.32;98057.19;4982097;28;19929;-77
2022/05/27 13:19:08;;;;;;;;;;;;;;;23.90;34.47;98057.06;4981748;28;20027;-76
2022/05/27 13:21:47;;;;;;;;;;;;;;;23.74;34.31;98068.72;4999727;28;19925;-72
2022/05/27 13:24:32;;;;;;;;;;;;;;;24.45;33.57;98068.69;4986232;28;19926;-72
2022/05/27 13:27:00;;;;;;;;;;;;;;;24.28;33.35;98067.63;4992063;28;20393;-72
2022/05/27 13:29:28;;;;;;;;;;;;;;;23.24;35.08;98078.81;4988407;28;20052;-72
2022/05/27 13:31:57;;;;;;;;;;;;;;;22.22;35.96;98064.16;5001911;28;19929;-72
2022/05/27 13:34:27;;;;;;;;;;;;;;;19.66;40.84;98081.47;4981877;28;19933;-72